M I D A S
Marine Information and Data Acquisition System
Tripno 489 of the Zeeleeuw from 2003-04-10 06:47:10 to 2003-04-10 14:06:13
Back to CruiseResearch ActivitiesStationsMapUnderway DataData graphs

EquipmentUnitsComment
TimeDGPSUTC
LatitudeDGPSDM.mWGS84
LongitudeDGPSDM.mWGS84
TemperatureSBE03/SBE38deg celciusITS90
ConductivitySBE21S/mITS90
SalinitySBE21 Practical Salinity Units
ChlorophylAChelsea fluorimeterg/lCalibrated in Aceton
Missing or incorrect values are displayed as -999
Sea surface data collected by the RV Zeeleeuw from 2003-04-10 06:47:10 to 2003-04-10 14:06:13
Time Latitude Longitude Temperature Conductivity Salinity ChlorophylA
2003-04-10 06:48:14 51°13.6 2°56.1 14.215905 0.0315 0.184372 -0.71383
2003-04-10 06:49:14 51°13.61 2°56.05 14.219338 0.031396 0.183716 -0.71383
2003-04-10 06:50:14 51°13.64 2°55.95 14.21925 0.031188 0.182516 -0.71383
2003-04-10 06:51:14 51°13.66 2°55.86 14.219778 0.031292 0.183136 -0.74754
2003-04-10 06:52:14 51°13.68 2°55.78 14.225631 0.031188 0.182522 -0.74754
2003-04-10 06:53:14 51°13.68 2°55.79 14.232012 0.029837 0.174442 -0.71383
2003-04-10 06:54:14 51°13.68 2°55.76 14.227831 0.031396 0.183745 -0.71383
2003-04-10 06:55:14 51°13.7 2°55.77 14.224751 0.031188 0.182531 -0.71383
2003-04-10 06:56:14 51°13.75 2°55.72 14.232232 0.029421 0.171961 -0.71383
2003-04-10 06:57:14 51°13.83 2°55.63 14.20785 0.028694 0.167653 -0.74754
2003-04-10 06:58:14 51°13.95 2°55.54 14.237952 0.028694 0.167687 -0.71383
2003-04-10 06:59:14 51°14.07 2°55.46 -999 0.029421 0.172012 -0.71383
2003-04-10 07:00:14 51°14.2 2°55.35 -999 0.029941 0.175155 -0.71383
2003-04-10 07:01:14 51°14.3 2°55.18 -999 0.02807 0.164065 -0.71383
2003-04-10 07:02:14 51°14.41 2°54.97 -999 0.029629 0.173336 -0.74754
2003-04-10 07:03:14 51°14.57 2°54.83 -999 0.037529 0.220557 -0.71383
2003-04-10 07:04:14 51°14.74 2°54.67 -999 0.03202 0.188411 -0.71383
2003-04-10 07:05:14 51°14.92 2°54.51 -999 0.036178 0.214051 -0.71383
2003-04-10 07:06:14 51°15.09 2°54.34 -999 0.032747 0.192986 -0.74754
2003-04-10 07:07:14 51°15.27 2°54.16 -999 0.042207 0.250741 -0.71383
2003-04-10 07:08:14 51°15.45 2°53.96 -999 0.036074 0.214142 -0.71383
2003-04-10 07:09:14 51°15.64 2°53.75 -999 0.034307 0.203882 -0.71383
2003-04-10 07:10:14 51°15.84 2°53.54 -999 0.035138 0.208898 -0.71383
2003-04-10 07:11:14 51°16.03 2°53.34 -999 0.035554 0.211516 -0.71383
2003-04-10 07:12:14 51°16.23 2°53.15 -999 0.041687 0.248768 -0.71383
2003-04-10 07:13:14 51°16.44 2°52.98 -999 0.033579 0.199479 -0.71383
2003-04-10 07:14:14 51°16.64 2°52.81 -999 0.033475 0.19926 -0.680121
2003-04-10 07:15:14 51°16.85 2°52.66 -999 0.036697 0.219152 -0.74754
2003-04-10 07:16:14 51°17.08 2°52.55 -999 0.034722 0.20736 -0.71383
2003-04-10 07:17:14 51°17.31 2°52.49 -999 0.033267 0.198321 -0.71383
2003-04-10 07:18:14 51°17.55 2°52.43 -999 0.035658 0.213172 -0.74754
2003-04-10 07:19:14 51°17.79 2°52.4 -999 0.040855 0.245244 -0.71383
2003-04-10 07:20:14 51°18.02 2°52.43 -999 3.323257 30.02628 15.938614
2003-04-10 07:21:14 51°18.24 2°52.59 -999 3.212176 30.605154 15.702648
2003-04-10 07:22:14 51°18.44 2°52.8 -999 3.192172 30.558188 15.432973
2003-04-10 07:23:14 51°18.63 2°53.04 -999 3.183749 30.524843 14.050888
2003-04-10 07:24:14 51°18.81 2°53.29 -999 3.196911 30.717192 12.736221
2003-04-10 07:25:14 51°18.97 2°53.58 -999 3.178485 30.568611 10.882204
2003-04-10 07:26:14 51°19.13 2°53.87 -999 3.186277 30.685007 10.814785
2003-04-10 07:27:14 51°19.25 2°54.19 -999 3.208179 30.926823 15.803777
2003-04-10 07:28:14 51°19.35 2°54.53 -999 3.219867 31.050093 18.096016
2003-04-10 07:29:14 51°19.46 2°54.87 -999 3.217656 31.024977 16.916187
2003-04-10 07:30:14 51°19.56 2°55.21 -999 3.21218 30.960517 16.275708
2003-04-10 07:31:14 51°19.66 2°55.55 -999 3.221342 31.055286 15.432973
2003-04-10 07:32:14 51°19.75 2°55.91 -999 3.210706 30.955298 14.152016
2003-04-10 07:33:14 51°19.82 2°56.26 -999 3.217867 31.040028 13.174443
2003-04-10 07:34:14 51°19.9 2°56.62 -999 3.218288 31.055833 12.972187
2003-04-10 07:35:14 51°19.98 2°56.97 -999 3.222395 31.101983 12.938477
2003-04-10 07:36:14 51°20.06 2°57.33 -999 3.219973 31.08969 12.399127
2003-04-10 07:37:14 51°20.14 2°57.68 -999 3.223238 31.135183 12.938477
2003-04-10 07:38:14 51°20.22 2°58.04 -999 3.227766 31.18817 13.174443
2003-04-10 07:39:14 51°20.3 2°58.39 -999 3.229135 31.212682 12.76993
2003-04-10 07:40:14 51°20.38 2°58.75 -999 3.228819 31.216133 12.601383
2003-04-10 07:41:14 51°20.46 2°59.1 -999 3.228714 31.240083 11.387845
2003-04-10 07:42:14 51°20.54 2°59.45 -999 3.228187 31.199503 22.208563
2003-04-10 07:43:14 51°20.62 2°59.8 -999 3.231767 31.221883 23.422101
2003-04-10 07:44:14 51°20.7 3°0.15 -999 3.228292 31.174101 26.759332
2003-04-10 07:45:14 51°20.78 3°0.5 -999 3.225975 31.147815 25.74805
2003-04-10 07:46:14 51°20.86 3°0.85 -999 3.223869 31.131348 23.759195
2003-04-10 07:47:14 51°20.94 3°1.2 -999 3.224607 31.13923 24.871606
2003-04-10 07:48:14 51°21.02 3°1.55 -999 3.222185 31.111821 24.60193
2003-04-10 07:49:14 51°21.1 3°1.9 -999 3.227555 31.164704 25.478375
2003-04-10 07:50:14 51°21.18 3°2.25 -999 3.225975 31.152356 25.040153
2003-04-10 07:51:14 51°21.26 3°2.6 -999 3.230819 31.200371 21.635503
2003-04-10 07:52:14 51°21.34 3°2.95 -999 3.231241 31.211699 23.118717
2003-04-10 07:53:14 51°21.42 3°3.31 -999 3.231241 31.206391 26.961589
2003-04-10 07:54:14 51°21.5 3°3.66 -999 3.230925 31.21287 19.983742
2003-04-10 07:55:14 51°21.58 3°4.01 -999 3.23082 31.223126 22.309691
2003-04-10 07:56:14 51°21.66 3°4.36 -999 3.232925 31.228965 28.242546
2003-04-10 07:57:14 51°21.74 3°4.71 -999 3.237454 31.275891 26.89417
2003-04-10 07:58:14 51°21.82 3°5.05 -999 3.237453 31.262219 38.72617
2003-04-10 07:59:14 51°21.89 3°5.4 -999 3.238928 31.275708 44.052255
2003-04-10 08:00:14 51°21.97 3°5.75 -999 3.237769 31.268635 39.703742
2003-04-10 08:01:14 51°22.05 3°6.09 -999 3.239454 31.288937 34.950717
2003-04-10 08:02:14 51°22.12 3°6.44 -999 3.241139 31.306201 34.815879
2003-04-10 08:03:14 51°22.2 3°6.78 -999 3.237875 31.280397 28.57964
2003-04-10 08:04:14 51°22.28 3°7.12 -999 3.228397 31.150256 29.793178
2003-04-10 08:05:14 51°22.35 3°7.46 -999 3.225238 31.09311 30.467366
2003-04-10 08:06:14 51°22.43 3°7.8 -999 3.228186 31.111009 34.242819
2003-04-10 08:07:14 51°22.5 3°8.15 -999 3.229134 31.121878 37.849725
2003-04-10 08:08:14 51°22.54 3°8.5 -999 3.225764 31.086669 34.681042
2003-04-10 08:09:14 51°22.58 3°8.86 -999 3.225553 31.085929 29.894306
2003-04-10 08:10:14 51°22.62 3°9.22 -999 3.220183 31.031633 26.725623
2003-04-10 08:11:14 51°22.67 3°9.57 -999 3.220183 31.026367 25.377247
2003-04-10 08:12:14 51°22.71 3°9.92 -999 3.220394 31.030119 26.32111
2003-04-10 08:13:14 51°22.74 3°10.27 -999 3.217761 30.977255 30.871879
2003-04-10 08:14:14 51°22.78 3°10.63 -999 3.225764 31.093453 -0.578993
2003-04-10 08:15:14 51°22.8 3°10.98 -999 3.202702 30.741623 32.557349
2003-04-10 08:16:14 51°22.83 3°11.33 -999 3.195859 30.761049 34.950717
2003-04-10 08:17:14 51°22.85 3°11.68 -999 3.199966 30.807045 33.838306
2003-04-10 08:18:14 51°22.88 3°12.04 -999 3.201335 30.829105 31.444939
2003-04-10 08:19:14 51°22.9 3°12.39 -999 3.195438 30.772221 30.737042
2003-04-10 08:20:14 51°22.92 3°12.75 -999 3.196386 30.777845 27.366101
2003-04-10 08:21:14 51°22.95 3°13.1 -999 3.19249 30.745268 26.32111
2003-04-10 08:22:14 51°22.97 3°13.45 -999 3.187541 30.696242 26.186272
2003-04-10 08:23:14 51°23 3°13.81 -999 3.189226 30.718669 25.2087
2003-04-10 08:24:14 51°23.02 3°14.16 -999 3.189542 30.717566 24.63564
2003-04-10 08:25:14 51°23.04 3°14.51 -999 3.175643 30.571683 24.231127
2003-04-10 08:26:14 51°23.06 3°14.87 -999 3.172168 30.539854 22.040016
2003-04-10 08:27:14 51°23.08 3°15.22 -999 3.186593 30.69284 24.467093
2003-04-10 08:28:14 51°23.1 3°15.57 -999 3.186172 30.700266 25.006443
2003-04-10 08:29:14 51°23.12 3°15.92 -999 3.195228 30.798352 29.489794
2003-04-10 08:30:14 51°23.14 3°16.26 -999 3.196386 30.816694 30.501076
2003-04-10 08:31:14 51°23.16 3°16.61 -999 3.200177 30.857153 34.74846
2003-04-10 08:32:14 51°23.18 3°16.96 -999 3.199124 30.845913 35.018136
2003-04-10 08:33:14 51°23.2 3°17.31 -999 3.198492 30.831686 38.456494
2003-04-10 08:34:14 51°23.24 3°17.65 -999 3.197965 30.80663 40.95099
2003-04-10 08:35:14 51°23.29 3°17.99 -999 3.195438 30.766253 41.288084
2003-04-10 08:36:14 51°23.4 3°18.29 -999 3.189647 30.696356 44.35564
2003-04-10 08:37:14 51°23.6 3°18.4 -999 3.186909 30.661253 40.715024
2003-04-10 08:38:14 51°23.81 3°18.53 -999 3.176906 30.534051 42.703879
2003-04-10 08:39:14 51°24.02 3°18.68 -999 3.171957 30.479946 45.771435
2003-04-10 08:40:14 51°24.23 3°18.8 -999 3.181223 30.579972 47.524324
2003-04-10 08:41:14 51°24.43 3°18.97 -999 3.181433 30.573331 54.266204
2003-04-10 08:42:14 51°24.61 3°19.18 -999 3.185013 30.613631 52.850409
2003-04-10 08:43:14 51°24.76 3°19.44 -999 3.189646 30.671829 53.592016
2003-04-10 08:44:14 51°24.84 3°19.76 -999 3.185329 30.619214 45.670306
2003-04-10 08:45:14 51°24.91 3°20.09 -999 3.188804 30.684409 49.176084
2003-04-10 08:46:14 51°24.98 3°20.41 -999 3.19807 30.798043 50.423332
2003-04-10 08:47:14 51°25.04 3°20.73 -999 3.19407 30.797955 66.30046
2003-04-10 08:48:14 51°25.11 3°21.05 -999 3.195544 30.819675 68.053349
2003-04-10 08:49:14 51°25.18 3°21.37 -999 3.19428 30.816664 68.087059
2003-04-10 08:50:14 51°25.25 3°21.69 -999 3.190806 30.766854 67.210614
2003-04-10 08:51:14 51°25.32 3°22.01 -999 3.186067 30.69244 54.299913
2003-04-10 08:52:14 51°25.37 3°22.24 -999 3.184487 30.650318 53.625725
2003-04-10 08:53:14 51°25.36 3°22.33 -999 3.179749 30.58206 50.355913
2003-04-10 08:54:14 51°25.33 3°22.37 -999 3.179012 30.575696 47.389486
2003-04-10 08:55:14 51°25.32 3°22.4 -999 3.179328 30.576095 45.333212
2003-04-10 08:56:14 51°25.31 3°22.41 -999 3.179643 30.568351 43.344358
2003-04-10 08:57:14 51°25.3 3°22.41 -999 3.177432 30.535955 43.378067
2003-04-10 08:58:14 51°25.3 3°22.4 -999 3.179643 30.546163 43.310648
2003-04-10 08:59:14 51°25.3 3°22.38 -999 3.180591 30.552542 45.636597
2003-04-10 09:00:14 51°25.3 3°22.35 -999 3.179327 30.536156 46.749007
2003-04-10 09:01:14 51°25.29 3°22.31 -999 3.179959 30.542132 49.007537
2003-04-10 09:02:14 51°25.3 3°22.26 -999 3.179643 30.54838 52.985247
2003-04-10 09:03:14 51°25.3 3°22.22 -999 3.18038 30.567311 59.760836
2003-04-10 09:04:14 51°25.29 3°22.19 -999 3.180275 30.576553 63.300324
2003-04-10 09:05:14 51°25.29 3°22.2 -999 3.179854 30.575033 62.693554
2003-04-10 09:06:14 51°25.32 3°22.21 -999 3.180065 30.569131 57.738272
2003-04-10 09:07:14 51°25.38 3°22.16 -999 3.178695 30.536089 52.850409
2003-04-10 09:08:14 51°25.44 3°22.08 -999 3.17122 30.440426 42.0634
2003-04-10 09:09:14 51°25.53 3°22.02 -999 3.163217 30.345908 41.793725
2003-04-10 09:10:14 51°25.61 3°21.99 -999 3.159743 30.306102 41.995982
2003-04-10 09:11:14 51°25.65 3°22.01 -999 3.161954 30.324436 40.816153
2003-04-10 09:12:14 51°25.67 3°22.04 -999 3.16427 30.351949 42.029691
2003-04-10 09:13:14 51°25.68 3°22.08 -999 3.167324 30.393172 45.333212
2003-04-10 09:14:14 51°25.7 3°22.13 -999 3.166587 30.375067 40.209383
2003-04-10 09:15:14 51°25.71 3°22.19 -999 3.167429 30.370797 38.186819
2003-04-10 09:16:14 51°25.71 3°22.24 10.777797 3.168271 30.390745 43.816289
2003-04-10 09:17:14 51°25.72 3°22.3 9.817455 3.161006 30.287305 33.433794
2003-04-10 09:18:14 51°25.72 3°22.35 9.890316 3.15332 30.189082 32.961862
2003-04-10 09:19:14 51°25.73 3°22.41 9.289955 3.155215 30.223007 40.715024
2003-04-10 09:20:14 51°25.72 3°22.47 9.418943 3.153636 30.212106 41.591469
2003-04-10 09:21:14 51°25.72 3°22.53 9.381311 3.146055 30.12596 39.568905
2003-04-10 09:22:14 51°25.73 3°22.59 10.231633 3.141738 30.073708 36.602477
2003-04-10 09:23:14 51°25.73 3°22.65 9.578839 3.144791 30.108218 36.771024
2003-04-10 09:24:14 51°25.73 3°22.7 10.313744 3.143844 30.095278 35.456358
2003-04-10 09:25:14 51°25.73 3°22.76 9.784335 3.141001 30.057202 33.973144
2003-04-10 09:26:14 51°25.73 3°22.82 9.279049 3.141738 30.071531 38.928426
2003-04-10 09:27:14 51°25.74 3°22.88 9.269468 3.141422 30.066011 41.760016
2003-04-10 09:28:14 51°25.75 3°22.93 10.15232 3.140685 30.064012 43.20952
2003-04-10 09:29:14 51°25.75 3°22.99 10.276344 3.141001 30.070258 44.423059
2003-04-10 09:30:14 51°25.75 3°23.05 10.090665 3.138369 30.032242 41.658888
2003-04-10 09:31:14 51°25.74 3°23.11 9.017924 3.132052 29.956719 39.804871
2003-04-10 09:32:14 51°25.74 3°23.16 10.406426 3.132473 29.959007 41.052118
2003-04-10 09:33:14 51°25.75 3°23.22 9.254857 3.127419 29.901233 39.939708
2003-04-10 09:34:14 51°25.75 3°23.28 9.83777 3.12942 29.92527 45.838853
2003-04-10 09:35:14 51°25.75 3°23.33 10.419523 3.124787 29.867644 45.400631
2003-04-10 09:36:14 51°25.75 3°23.39 10.268825 3.126577 29.882242 44.288221
2003-04-10 09:37:14 51°25.75 3°23.45 9.561229 3.124576 29.845277 41.928563
2003-04-10 09:38:14 51°25.75 3°23.51 9.324608 3.11868 29.782293 44.085965
2003-04-10 09:39:14 51°25.75 3°23.56 9.751056 3.11647 29.756798 42.299366
2003-04-10 09:40:14 51°25.76 3°23.62 9.552918 3.117101 29.766334 43.479195
2003-04-10 09:41:14 51°25.76 3°23.68 9.882235 3.113101 29.731972 45.771435
2003-04-10 09:42:14 51°25.75 3°23.74 10.230652 3.113311 29.739211 50.760426
2003-04-10 09:43:14 51°25.73 3°23.78 10.000723 3.111416 29.720629 52.041383
2003-04-10 09:44:14 51°25.7 3°23.8 8.72155 3.111627 29.720704 52.884118
2003-04-10 09:45:14 51°25.66 3°23.8 10.057355 3.110469 29.70919 53.726853
2003-04-10 09:46:14 51°25.61 3°23.75 9.113752 3.108995 29.67575 46.074819
2003-04-10 09:47:14 51°25.58 3°23.68 9.989231 3.107941 29.594811 28.613349
2003-04-10 09:48:14 51°25.55 3°23.61 9.255379 3.107942 29.635383 43.883708
2003-04-10 09:49:14 51°25.53 3°23.54 9.20303 3.110574 29.695992 53.35605
2003-04-10 09:50:14 51°25.52 3°23.46 10.048498 3.112679 29.718934 55.344905
2003-04-10 09:51:14 51°25.5 3°23.39 8.839738 3.112574 29.722833 54.50217
2003-04-10 09:52:14 51°25.5 3°23.26 10.049201 3.111205 29.669079 39.83858
2003-04-10 09:53:14 51°25.57 3°23.19 9.692837 3.111205 29.641275 36.905862
2003-04-10 09:54:14 51°25.6 3°23.24 10.145395 3.115311 29.70023 42.67017
2003-04-10 09:55:14 51°25.58 3°23.26 9.900604 3.116048 29.710856 43.142101
2003-04-10 09:56:14 51°25.58 3°23.23 10.239858 3.116575 29.742152 51.535742
2003-04-10 09:57:14 51°25.57 3°23.19 9.243186 3.118365 29.789002 59.288905
2003-04-10 09:58:14 51°25.57 3°23.15 9.383299 3.122155 29.849898 63.805965
2003-04-10 09:59:14 51°25.57 3°23.1 9.426372 3.124471 29.887359 65.086922
2003-04-10 10:00:14 51°25.56 3°23.06 9.252723 3.12226 29.850291 58.918101
2003-04-10 10:01:14 51°25.55 3°23.01 9.888719 3.11847 29.769315 48.097383
2003-04-10 10:02:14 51°25.54 3°22.96 10.307769 3.117206 29.709493 40.141965
2003-04-10 10:03:14 51°25.53 3°22.92 10.087386 3.120154 29.731272 44.861281
2003-04-10 10:04:14 51°25.52 3°22.87 9.224819 3.120891 29.774806 48.906409
2003-04-10 10:05:14 51°25.51 3°22.82 9.91338 3.120049 29.777383 54.030238
2003-04-10 10:06:14 51°25.49 3°22.77 9.502934 3.120154 29.781361 54.198785
2003-04-10 10:07:14 51°25.47 3°22.74 9.80292 3.119522 29.761084 51.299777
2003-04-10 10:08:14 51°25.45 3°22.71 9.186314 3.118575 29.761112 49.715435
2003-04-10 10:09:14 51°25.44 3°22.68 10.385121 3.119312 29.769605 48.400768
2003-04-10 10:10:14 51°25.43 3°22.67 9.797415 3.123102 29.787383 41.490341
2003-04-10 10:11:14 51°25.42 3°22.65 9.539032 3.119206 29.727002 37.748597
2003-04-10 10:12:14 51°25.41 3°22.63 10.291615 3.118785 29.697588 31.883161
2003-04-10 10:13:14 51°25.4 3°22.61 9.670025 3.11889 29.692994 30.703332
2003-04-10 10:14:14 51°25.4 3°22.59 10.022575 3.121416 29.697498 26.186272
2003-04-10 10:15:14 51°25.39 3°22.57 9.541535 3.12268 29.695122 24.129999
2003-04-10 10:16:14 51°25.38 3°22.54 10.208214 3.121206 29.680335 23.894033
2003-04-10 10:17:14 51°25.38 3°22.52 10.249764 3.122258 29.687847 21.871469
2003-04-10 10:18:14 51°25.37 3°22.49 10.01873 3.123627 29.691564 22.107435
2003-04-10 10:19:14 51°25.37 3°22.47 10.365722 3.123627 29.698679 23.320973
2003-04-10 10:20:14 51°25.36 3°22.44 10.418964 3.12268 29.692987 22.545657
2003-04-10 10:21:14 51°25.3 3°22.49 11.154637 3.121206 29.706682 30.062853
2003-04-10 10:22:14 51°25.19 3°22.42 9.50369 3.120575 29.747144 37.883435
2003-04-10 10:23:14 51°25.1 3°22.24 9.441512 3.12605 29.832107 51.232358
2003-04-10 10:24:14 51°24.91 3°22.05 10.81014 3.129524 29.886033 43.580324
2003-04-10 10:25:14 51°24.71 3°21.85 10.552344 3.126787 29.842039 41.861144
2003-04-10 10:26:14 51°24.5 3°21.62 10.224809 3.110678 29.640715 29.388665
2003-04-10 10:27:14 51°24.29 3°21.43 9.458209 3.107099 29.579551 21.770341
2003-04-10 10:28:14 51°24.09 3°21.32 10.225557 3.114047 29.61856 19.039879
2003-04-10 10:29:14 51°23.97 3°21.15 9.689586 3.109941 29.610181 19.57923
2003-04-10 10:30:14 51°23.9 3°20.99 10.212094 3.112679 29.666781 21.466956
2003-04-10 10:31:14 51°23.83 3°20.86 9.548951 3.114363 29.666705 13.005896
2003-04-10 10:32:14 51°23.78 3°20.77 9.980599 3.116574 29.651532 10.106888
2003-04-10 10:33:14 51°23.73 3°20.72 10.000441 3.126364 29.657111 8.758512
2003-04-10 10:34:14 51°23.7 3°20.68 9.993359 3.127522 29.705471 15.331845
2003-04-10 10:35:14 51°23.67 3°20.64 9.795392 3.119522 29.701069 21.466956
2003-04-10 10:36:14 51°23.64 3°20.6 10.444171 3.112047 29.675104 21.23099
2003-04-10 10:37:14 51°23.62 3°20.56 9.852203 3.111415 29.649192 21.534375
2003-04-10 10:38:14 51°23.6 3°20.53 10.113003 3.11131 29.634551 20.725349
2003-04-10 10:39:14 51°23.58 3°20.49 10.006444 3.111626 29.628625 20.11858
2003-04-10 10:40:14 51°23.57 3°20.45 9.816326 3.111731 29.621909 18.096016
2003-04-10 10:41:14 51°23.55 3°20.41 10.639674 3.112573 29.60732 14.590238
2003-04-10 10:42:14 51°23.53 3°20.37 10.524201 3.115941 29.596616 14.152016
2003-04-10 10:43:14 51°23.52 3°20.33 9.645413 3.116678 29.585231 14.017178
2003-04-10 10:44:14 51°23.51 3°20.29 9.728594 3.116257 29.582934 15.60152
2003-04-10 10:45:14 51°23.49 3°20.25 10.165047 3.113625 29.582209 18.736494
2003-04-10 10:46:14 51°23.48 3°20.21 9.312048 3.111836 29.584669 20.084871
2003-04-10 10:47:14 51°23.47 3°20.17 9.255806 3.11152 29.58064 20.961315
2003-04-10 10:48:14 51°23.45 3°20.13 10.232334 3.109836 29.58634 24.905315
2003-04-10 10:49:14 51°23.44 3°20.09 10.168415 3.107836 29.593702 34.276529
2003-04-10 10:50:14 51°23.43 3°20.05 9.428218 3.112469 29.688112 39.434067
2003-04-10 10:51:14 51°23.41 3°20.01 9.849101 3.112785 29.701447 41.422922
2003-04-10 10:52:14 51°23.4 3°19.96 9.735941 3.117838 29.770531 45.939982
2003-04-10 10:53:14 51°23.38 3°19.92 10.306042 3.127419 29.891864 61.7834
2003-04-10 10:54:14 51°23.37 3°19.87 10.405214 3.124998 29.86771 61.480016
2003-04-10 10:55:14 51°23.35 3°19.82 9.649516 3.137421 30.014972 68.087059
2003-04-10 10:56:14 51°23.34 3°19.76 10.14474 3.139843 30.052918 68.053349
2003-04-10 10:57:14 51°23.32 3°19.71 9.941412 3.147003 30.13818 68.01964
2003-04-10 10:58:14 51°23.31 3°19.65 10.04592 3.148898 30.164082 67.98593
2003-04-10 10:59:14 51°23.29 3°19.58 10.155175 3.148792 30.131688 68.053349
2003-04-10 11:00:14 51°23.28 3°19.48 9.420741 3.132682 29.801748 42.231947
2003-04-10 11:01:14 51°23.33 3°19.37 10.049576 3.139947 29.949274 67.311742
2003-04-10 11:02:14 51°23.41 3°19.3 10.386753 3.137526 29.933802 60.300187
2003-04-10 11:03:14 51°23.46 3°19.13 10.202791 3.125417 29.736738 34.20911
2003-04-10 11:04:14 51°23.5 3°18.92 9.394094 3.125102 29.798449 42.602751
2003-04-10 11:05:14 51°23.54 3°18.73 9.268899 3.130787 29.823993 39.130683
2003-04-10 11:06:14 51°23.6 3°18.63 9.229898 3.136999 29.880117 38.490204
2003-04-10 11:07:14 51°23.66 3°18.61 10.010806 3.138789 29.937776 42.0634
2003-04-10 11:08:14 51°23.68 3°18.66 10.249063 3.134893 29.885193 33.872016
2003-04-10 11:09:14 51°23.67 3°18.73 8.668049 3.128155 29.77268 26.354819
2003-04-10 11:10:14 51°23.68 3°18.8 9.163419 3.122679 29.682316 15.534101
2003-04-10 11:11:14 51°23.69 3°18.88 9.205214 3.123732 29.651473 15.399264
2003-04-10 11:12:14 51°23.7 3°18.94 9.976751 3.122048 29.684211 20.961315
2003-04-10 11:13:14 51°23.71 3°19 10.011462 3.120783 29.585152 20.421965
2003-04-10 11:14:14 51°23.72 3°19.05 9.925214 3.114572 29.565962 18.331982
2003-04-10 11:15:14 51°23.73 3°19.1 9.602108 3.115309 29.531301 16.74764
2003-04-10 11:16:14 51°23.74 3°19.15 9.911736 3.110994 29.604204 21.938888
2003-04-10 11:17:14 51°23.74 3°19.21 10.083264 3.116678 29.578154 13.949759
2003-04-10 11:18:14 51°23.75 3°19.26 9.748843 3.122363 29.585452 12.23058
2003-04-10 11:19:14 51°23.75 3°19.31 9.584598 3.121835 29.51793 9.264153
2003-04-10 11:20:14 51°23.75 3°19.36 10.219761 3.125098 29.449663 7.882067
2003-04-10 11:21:14 51°23.75 3°19.42 9.628198 3.120887 29.431626 14.792494
2003-04-10 11:22:14 51°23.74 3°19.47 10.160555 3.111097 29.463941 27.264973
2003-04-10 11:23:14 51°23.74 3°19.52 10.322892 3.109098 29.494396 31.040426
2003-04-10 11:24:14 51°23.73 3°19.57 10.129528 3.116678 29.541411 28.377383
2003-04-10 11:25:14 51°23.73 3°19.62 9.588752 3.117099 29.589651 33.568631
2003-04-10 11:26:14 51°23.73 3°19.67 9.641169 3.114678 29.605324 34.883298
2003-04-10 11:27:14 51°23.73 3°19.73 9.85963 3.117626 29.651939 36.602477
2003-04-10 11:28:14 51°23.73 3°19.78 9.402189 3.119732 29.69402 43.378067
2003-04-10 11:29:14 51°23.71 3°19.83 9.768145 3.122996 29.753362 50.355913
2003-04-10 11:30:14 51°23.71 3°19.89 9.979754 3.124049 29.742309 43.681452
2003-04-10 11:31:14 51°23.7 3°19.95 10.14605 3.128471 29.791726 45.670306
2003-04-10 11:32:14 51°23.7 3°20.01 9.375439 3.126997 29.794082 46.344494
2003-04-10 11:33:14 51°23.7 3°20.07 10.423857 3.123627 29.727888 42.838717
2003-04-10 11:34:14 51°23.7 3°20.13 9.860617 3.121311 29.719199 43.074683
2003-04-10 11:35:14 51°23.71 3°20.19 9.674315 3.117416 29.666086 39.467777
2003-04-10 11:36:14 51°23.71 3°20.25 9.862826 3.117732 29.7079 44.659024
2003-04-10 11:37:14 51°23.72 3°20.31 9.848537 3.113205 29.648099 42.0634
2003-04-10 11:38:14 51°23.71 3°20.38 9.094494 3.116153 29.704823 51.030101
2003-04-10 11:39:14 51°23.71 3°20.44 9.422587 3.113416 29.690962 50.760426
2003-04-10 11:40:14 51°23.71 3°20.51 9.090118 3.113627 29.707473 51.502033
2003-04-10 11:41:14 51°23.7 3°20.58 9.660172 3.11131 29.655923 47.591742
2003-04-10 11:42:14 51°23.69 3°20.64 9.425237 3.108783 29.617905 43.108392
2003-04-10 11:43:14 51°23.68 3°20.71 9.976235 3.104993 29.573013 41.321794
2003-04-10 11:44:14 51°23.66 3°20.75 9.489274 3.104151 29.584758 40.782443
2003-04-10 11:45:14 51°23.64 3°20.78 9.792804 3.098466 29.523446 41.052118
2003-04-10 11:46:14 51°23.62 3°20.8 9.570153 3.09594 29.498252 37.108118
2003-04-10 11:47:14 51°23.61 3°20.85 9.65376 3.096887 29.479882 29.11899
2003-04-10 11:48:14 51°23.62 3°20.89 9.056482 3.097202 29.45915 21.399537
2003-04-10 11:49:14 51°23.63 3°20.9 9.725392 3.096887 29.455123 25.579503
2003-04-10 11:50:14 51°23.64 3°20.9 9.946388 3.097624 29.472772 32.557349
2003-04-10 11:51:14 51°23.65 3°20.89 9.558679 3.09594 29.489744 38.389076
2003-04-10 11:52:14 51°23.65 3°20.87 9.4206 3.095413 29.502639 38.018272
2003-04-10 11:53:14 51°23.66 3°20.85 9.515599 3.094045 29.465543 31.41123
2003-04-10 11:54:14 51°23.66 3°20.83 8.364241 3.09615 29.467174 27.399811
2003-04-10 11:55:14 51°23.66 3°20.81 9.719692 3.095939 29.455056 27.736905
2003-04-10 11:56:14 51°23.66 3°20.79 9.280708 3.097097 29.483514 32.52364
2003-04-10 11:57:14 51°23.66 3°20.77 10.404049 3.097519 29.485113 30.062853
2003-04-10 11:58:14 51°23.66 3°20.75 8.698825 3.09815 29.494593 31.916871
2003-04-10 11:59:14 51°23.66 3°20.73 9.362889 3.098571 29.503985 30.534785
2003-04-10 12:00:14 51°23.65 3°20.7 10.106588 3.099203 29.508507 26.422238
2003-04-10 12:01:14 51°23.66 3°20.68 9.451635 3.098571 29.490525 24.298546
2003-04-10 12:02:14 51°23.66 3°20.66 9.283174 3.100045 29.509575 27.163845
2003-04-10 12:03:14 51°23.66 3°20.64 9.395514 3.101203 29.526016 28.444802
2003-04-10 12:04:14 51°23.67 3°20.62 10.091742 3.100993 29.528055 32.52364
2003-04-10 12:05:14 51°23.68 3°20.6 8.778353 3.101519 29.531468 33.568631
2003-04-10 12:06:14 51°23.68 3°20.57 9.548006 3.103309 29.553147 36.703606
2003-04-10 12:07:14 51°23.69 3°20.54 9.663802 3.103625 29.557182 37.242956
2003-04-10 12:08:14 51°23.7 3°20.51 9.886229 3.102046 29.545525 38.995845
2003-04-10 12:09:14 51°23.7 3°20.46 9.486769 3.101519 29.547082 38.321657
2003-04-10 12:10:14 51°23.7 3°20.41 9.863814 3.101309 29.536346 36.737315
2003-04-10 12:11:14 51°23.7 3°20.34 9.40323 3.10373 29.588146 41.220665
2003-04-10 12:12:14 51°23.69 3°20.28 9.634755 3.10352 29.580947 39.198101
2003-04-10 12:13:14 51°23.68 3°20.21 9.331005 3.104362 29.589111 38.051982
2003-04-10 12:14:14 51°23.67 3°20.15 9.725109 3.10352 29.573836 36.029418
2003-04-10 12:15:14 51°23.66 3°20.08 9.650412 3.103941 29.574717 36.939571
2003-04-10 12:16:14 51°23.65 3°20.02 9.354931 3.104572 29.574973 36.737315
2003-04-10 12:17:14 51°23.64 3°19.96 9.66253 3.105309 29.573496 37.647469
2003-04-10 12:18:14 51°23.63 3°19.91 9.808941 3.106888 29.602924 43.445486
2003-04-10 12:19:14 51°23.63 3°19.87 9.496128 3.107415 29.608469 43.715161
2003-04-10 12:20:14 51°23.62 3°19.84 9.826014 3.107836 29.622161 47.322067
2003-04-10 12:21:14 51°23.61 3°19.8 9.888531 3.110047 29.658295 50.962683
2003-04-10 12:22:14 51°23.6 3°19.77 9.167837 3.110363 29.668762 51.805418
2003-04-10 12:23:14 51°23.59 3°19.73 9.986322 3.108573 29.634202 46.546751
2003-04-10 12:24:14 51°23.58 3°19.7 9.679783 3.108573 29.63064 43.849999
2003-04-10 12:25:14 51°23.57 3°19.66 10.018683 3.109099 29.6369 44.726443
2003-04-10 12:26:14 51°23.56 3°19.62 9.349247 3.109837 29.658929 50.018819
2003-04-10 12:27:14 51°23.55 3°19.58 9.390165 3.110152 29.665114 49.41205
2003-04-10 12:28:14 51°23.54 3°19.54 9.652864 3.110995 29.671141 49.378341
2003-04-10 12:29:14 51°23.53 3°19.5 9.480434 3.111837 29.690022 53.389759
2003-04-10 12:30:14 51°23.52 3°19.46 9.729395 3.112048 29.693672 56.086512
2003-04-10 12:31:14 51°23.52 3°19.41 9.804613 3.111732 29.691055 57.198922
2003-04-10 12:32:15 51°23.51 3°19.36 9.806401 3.111732 29.687482 56.491024
2003-04-10 12:33:13 51°23.48 3°19.12 9.800473 3.112469 29.6974 59.592289
2003-04-10 12:34:15 51°23.43 3°18.73 9.730902 3.115838 29.735807 64.244187
2003-04-10 12:35:15 51°23.38 3°18.34 9.228569 3.123839 29.810927 68.188187
2003-04-10 12:36:13 51°23.33 3°17.97 9.848443 3.132893 29.907936 68.087059
2003-04-10 12:37:13 51°23.28 3°17.6 9.716819 3.139842 29.985642 68.053349
2003-04-10 12:38:15 51°23.24 3°17.21 9.569019 3.147212 30.073638 68.087059
2003-04-10 12:39:15 51°23.2 3°16.84 10.211113 3.151634 30.107335 68.053349
2003-04-10 12:40:13 51°23.14 3°16.49 9.445864 3.152582 30.100688 68.01964
2003-04-10 12:41:15 51°23.11 3°16.11 9.812046 3.158162 30.152384 68.01964
2003-04-10 12:42:15 51°23.06 3°15.74 9.418091 3.163005 30.175974 68.01964
2003-04-10 12:43:15 51°23.02 3°15.37 9.699293 3.162689 30.187143 68.087059
2003-04-10 12:44:13 51°22.98 3°15 9.579264 3.16132 30.179944 68.01964
2003-04-10 12:45:15 51°22.93 3°14.61 9.83603 3.163426 30.185495 68.087059
2003-04-10 12:46:15 51°22.89 3°14.23 9.711119 3.167953 30.222405 68.087059
2003-04-10 12:47:13 51°22.85 3°13.86 9.330437 3.16669 30.20254 59.996802
2003-04-10 12:48:15 51°22.8 3°13.47 9.964457 3.169638 30.214065 51.063811
2003-04-10 12:49:15 51°22.76 3°13.08 9.882893 3.175744 30.250903 41.085828
2003-04-10 12:50:15 51°22.71 3°12.7 9.532749 3.180061 30.258695 28.984153
2003-04-10 12:51:13 51°22.67 3°12.32 10.000816 3.179639 30.226767 22.849042
2003-04-10 12:52:15 51°22.68 3°11.92 10.268124 3.185325 30.272831 26.624494
2003-04-10 12:53:15 51°22.74 3°11.55 10.325412 3.200277 30.433049 22.849042
2003-04-10 12:54:13 51°22.79 3°11.18 9.636972 3.209227 30.504669 21.635503
2003-04-10 12:55:13 51°22.87 3°10.83 9.815809 3.210492 30.61231 40.512768
2003-04-10 12:56:15 51°22.96 3°10.46 9.505675 3.206175 30.632096 47.659161
2003-04-10 12:57:13 51°23.02 3°10.11 9.9416 3.209861 30.68361 34.647332
2003-04-10 12:58:15 51°23.03 3°9.72 9.373213 3.215021 30.738218 27.669486
2003-04-10 12:59:13 51°22.93 3°9.39 10.037343 3.228498 30.786222 21.163571
2003-04-10 13:00:15 51°22.79 3°9.07 10.164345 3.22692 30.866429 25.478375
2003-04-10 13:01:15 51°22.66 3°8.74 10.273962 3.231026 30.910673 26.927879
2003-04-10 13:02:13 51°22.54 3°8.41 9.930661 3.242714 30.959367 30.939298
2003-04-10 13:03:15 51°22.42 3°8.06 10.318971 3.238397 30.949342 20.556802
2003-04-10 13:04:15 51°22.3 3°7.72 9.555043 3.23408 30.925926 20.388255
2003-04-10 13:05:15 51°22.18 3°7.38 9.599088 3.235028 30.970939 32.152836
2003-04-10 13:06:13 51°22.07 3°7.05 9.185507 3.23924 30.9486 25.107571
2003-04-10 13:07:15 51°21.94 3°6.7 9.267334 3.240505 31.126362 56.15393
2003-04-10 13:08:15 51°21.83 3°6.35 10.267704 3.23345 31.043074 49.614306
2003-04-10 13:09:13 51°21.73 3°6 8.950894 3.226816 30.984516 40.243093
2003-04-10 13:10:15 51°21.63 3°5.63 9.220405 3.226078 30.922186 46.647879
2003-04-10 13:11:15 51°21.54 3°5.27 9.455277 3.229026 30.937827 52.78299
2003-04-10 13:12:13 51°21.44 3°4.92 9.678321 3.226921 30.944549 50.928973
2003-04-10 13:13:15 51°21.34 3°4.55 10.02295 3.225341 30.935235 49.850272
2003-04-10 13:14:15 51°21.24 3°4.19 9.454662 3.225552 30.934488 43.512905
2003-04-10 13:15:15 51°21.14 3°3.83 9.595029 3.226183 30.927775 38.389076
2003-04-10 13:16:15 51°21.04 3°3.47 9.978722 3.23029 30.929634 38.018272
2003-04-10 13:17:15 51°20.94 3°3.11 9.231274 3.233975 30.964244 45.366922
2003-04-10 13:18:15 51°20.84 3°2.75 9.584598 3.227658 30.939697 47.827708
2003-04-10 13:19:15 51°20.74 3°2.4 9.820512 3.227026 30.929264 51.164939
2003-04-10 13:20:13 51°20.64 3°2.05 9.618622 3.229132 30.960568 56.861828
2003-04-10 13:21:15 51°20.54 3°1.68 9.827472 3.230395 30.962791 51.333486
2003-04-10 13:22:14 51°20.44 3°1.33 9.632868 3.23366 31.005658 52.277349
2003-04-10 13:23:15 51°20.34 3°0.97 10.343424 3.236398 31.023518 44.490477
2003-04-10 13:24:13 51°20.25 3°0.63 9.967742 3.237346 31.04779 46.58046
2003-04-10 13:25:15 51°20.15 3°0.26 9.92127 3.238925 31.054089 40.512768
2003-04-10 13:26:15 51°20.06 2°59.9 9.883974 3.237872 31.075103 41.557759
2003-04-10 13:27:13 51°19.96 2°59.55 9.448466 3.237346 31.054526 31.883161
2003-04-10 13:28:15 51°19.86 2°59.18 9.430678 3.239451 31.046216 29.894306
2003-04-10 13:29:15 51°19.77 2°58.82 9.970511 3.238504 31.047372 26.085144
2003-04-10 13:30:15 51°19.67 2°58.46 10.590702 3.241662 31.005483 17.3207
2003-04-10 13:31:15 51°19.57 2°58.1 9.678369 3.245558 30.998352 13.882341
2003-04-10 13:32:15 51°19.48 2°57.74 -999 3.247663 30.935314 9.095606
2003-04-10 13:33:15 51°19.38 2°57.38 -999 3.251875 30.93759 8.623674
2003-04-10 13:34:15 51°19.28 2°57.02 -999 3.257666 30.966836 8.82593
2003-04-10 13:35:15 51°19.18 2°56.66 -999 3.252191 30.997915 10.241725
2003-04-10 13:36:15 51°19.09 2°56.3 -999 3.258614 30.99012 10.5114
2003-04-10 13:37:15 51°19 2°55.94 -999 3.248085 31.031042 22.983879
2003-04-10 13:38:15 51°18.91 2°55.58 -999 3.233028 30.978047 39.29923
2003-04-10 13:39:15 51°18.82 2°55.21 -999 3.235028 30.946372 26.388529
2003-04-10 13:40:15 51°18.73 2°54.85 -999 3.237555 30.918159 17.86005
2003-04-10 13:41:15 51°18.64 2°54.49 -999 3.233975 30.940423 17.084734
2003-04-10 13:42:13 51°18.55 2°54.14 -999 3.229447 30.922935 15.399264
2003-04-10 13:43:15 51°18.45 2°53.76 -999 3.234501 30.891794 12.062033
2003-04-10 13:44:15 51°18.36 2°53.4 -999 3.235975 30.921483 10.5114
2003-04-10 13:45:15 51°18.27 2°53.04 -999 3.245767 30.905711 8.589965
2003-04-10 13:46:15 51°18.13 2°52.73 -999 3.249242 30.931269 8.927059
2003-04-10 13:47:15 51°17.93 2°52.51 -999 3.255349 30.919585 8.016905
2003-04-10 13:48:15 51°17.69 2°52.42 -999 3.254191 30.971618 9.736084
2003-04-10 13:49:15 51°17.45 2°52.37 -999 3.247559 31.029193 29.085281
2003-04-10 13:50:15 51°17.21 2°52.34 -999 3.23566 30.965718 23.287264
2003-04-10 13:51:15 51°16.97 2°52.41 -999 3.233975 30.978406 26.422238
2003-04-10 13:52:15 51°16.75 2°52.52 -999 3.232291 30.988136 25.613212
2003-04-10 13:53:15 51°16.52 2°52.63 -999 3.227447 30.967311 23.017589
2003-04-10 13:54:15 51°16.29 2°52.75 -999 3.219234 30.906901 22.815332
2003-04-10 13:55:15 51°16.1 2°52.95 -999 3.215864 30.836094 16.140871
2003-04-10 13:56:15 51°15.92 2°53.17 -999 3.218496 30.785363 12.635093
2003-04-10 13:57:13 51°15.74 2°53.39 -999 3.218811 30.760602 10.646238
2003-04-10 13:58:15 51°15.55 2°53.6 -999 3.222389 30.635157 8.927059
2003-04-10 13:59:15 51°15.36 2°53.81 -999 3.218388 30.607662 12.668802
2003-04-10 14:00:13 51°15.18 2°54.01 -999 3.202068 30.542444 11.792358
2003-04-10 14:01:15 51°14.99 2°54.22 -999 3.199437 30.595384 15.534101
2003-04-10 14:02:15 51°14.82 2°54.44 -999 3.192277 30.55636 18.163435
2003-04-10 14:03:15 51°14.65 2°54.65 -999 3.191751 30.551518 18.163435
2003-04-10 14:04:13 51°14.5 2°54.85 -999 3.185117 30.454844 17.893759
2003-04-10 14:05:15 51°14.35 2°55.1 -999 3.173534 30.306794 17.86005